Mount Airy, North Carolina
Current Conditions -  °F | °C
As of 3:55 AM on Friday 24 Oct 2014 (Local Time) from KMWK Reporting Station
Clear Clear  
Wind Chill: 44°   Ceiling: Unl
Heat Index: 46°   Visibility: 10mi
Dew Point: 41°   Wind: 5mph
Humidity: 81%   Direction: 310°NW
Pressure: 30.07"   Gusts: NA
Location:  36.5°N, 80.61°W
Report Text: KMWK 240755Z AUTO 31004KT 10SM CLR 08/05 A3007 RMK AO2 T00800050
Loading
Personal Weather Stations






























Interactive Weather Map
Tropical Storm Tracking
New forecast layout! Learn more

10-Day Weather Forecast

Advertisements
Track Severe Weather on mobile